sensor_id;sensor_type;location;lat;lon;timestamp;temperature;humidity
70154;DHT22;57519;51.494;-2.626;2022-08-01T00:01:35;17.03;70.03
70154;DHT22;57519;51.494;-2.626;2022-08-01T00:04:00;17.07;69.69
70154;DHT22;57519;51.494;-2.626;2022-08-01T00:06:26;17.12;69.92
70154;DHT22;57519;51.494;-2.626;2022-08-01T00:08:51;17.21;69.60
70154;DHT22;57519;51.494;-2.626;2022-08-01T00:11:17;17.27;69.34
70154;DHT22;57519;51.494;-2.626;2022-08-01T00:13:42;17.29;69.05
70154;DHT22;57519;51.494;-2.626;2022-08-01T00:16:08;17.35;67.88
70154;DHT22;57519;51.494;-2.626;2022-08-01T00:18:33;17.43;68.55
70154;DHT22;57519;51.494;-2.626;2022-08-01T00:21:01;17.48;68.92
70154;DHT22;57519;51.494;-2.626;2022-08-01T00:23:26;17.48;68.30
70154;DHT22;57519;51.494;-2.626;2022-08-01T00:25:52;17.48;70.72
70154;DHT22;57519;51.494;-2.626;2022-08-01T00:28:17;17.48;68.80
70154;DHT22;57519;51.494;-2.626;2022-08-01T00:30:43;17.52;68.99
70154;DHT22;57519;51.494;-2.626;2022-08-01T00:33:08;17.43;68.65
70154;DHT22;57519;51.494;-2.626;2022-08-01T00:35:33;17.46;68.14
70154;DHT22;57519;51.494;-2.626;2022-08-01T00:37:59;17.48;68.92
70154;DHT22;57519;51.494;-2.626;2022-08-01T00:40:24;17.48;68.64
70154;DHT22;57519;51.494;-2.626;2022-08-01T00:42:50;17.52;67.98
70154;DHT22;57519;51.494;-2.626;2022-08-01T00:45:15;17.56;67.84
70154;DHT22;57519;51.494;-2.626;2022-08-01T00:47:41;17.57;67.52
70154;DHT22;57519;51.494;-2.626;2022-08-01T00:50:06;17.56;67.38
70154;DHT22;57519;51.494;-2.626;2022-08-01T00:52:33;17.48;67.53
70154;DHT22;57519;51.494;-2.626;2022-08-01T00:54:59;17.48;67.56
70154;DHT22;57519;51.494;-2.626;2022-08-01T00:57:24;17.52;67.58
70154;DHT22;57519;51.494;-2.626;2022-08-01T00:59:50;17.39;67.25
70154;DHT22;57519;51.494;-2.626;2022-08-01T01:02:17;17.34;67.72
70154;DHT22;57519;51.494;-2.626;2022-08-01T01:04:43;17.36;67.76
70154;DHT22;57519;51.494;-2.626;2022-08-01T01:09:52;17.43;66.98
70154;DHT22;57519;51.494;-2.626;2022-08-01T01:12:34;17.36;67.20
70154;DHT22;57519;51.494;-2.626;2022-08-01T01:15:36;17.29;67.99
70154;DHT22;57519;51.494;-2.626;2022-08-01T01:18:15;17.35;67.10
70154;DHT22;57519;51.494;-2.626;2022-08-01T01:26:38;17.28;67.15
70154;DHT22;57519;51.494;-2.626;2022-08-01T01:42:46;16.76;71.40
70154;DHT22;57519;51.494;-2.626;2022-08-01T01:45:13;16.71;72.55
70154;DHT22;57519;51.494;-2.626;2022-08-01T01:47:39;16.64;72.48
70154;DHT22;57519;51.494;-2.626;2022-08-01T01:50:07;16.52;72.74
70154;DHT22;57519;51.494;-2.626;2022-08-01T01:52:34;16.55;72.41
70154;DHT22;57519;51.494;-2.626;2022-08-01T01:55:01;16.56;69.79
70154;DHT22;57519;51.494;-2.626;2022-08-01T01:57:30;16.63;69.50
70154;DHT22;57519;51.494;-2.626;2022-08-01T01:59:59;16.59;70.17
70154;DHT22;57519;51.494;-2.626;2022-08-01T02:02:25;16.62;70.45
70154;DHT22;57519;51.494;-2.626;2022-08-01T02:04:52;16.62;69.52
70154;DHT22;57519;51.494;-2.626;2022-08-01T02:07:22;16.63;69.45
70154;DHT22;57519;51.494;-2.626;2022-08-01T02:09:49;16.69;69.86
70154;DHT22;57519;51.494;-2.626;2022-08-01T02:12:16;16.70;69.93
70154;DHT22;57519;51.494;-2.626;2022-08-01T02:14:44;16.73;68.73
70154;DHT22;57519;51.494;-2.626;2022-08-01T02:17:12;16.76;68.62
70154;DHT22;57519;51.494;-2.626;2022-08-01T02:19:40;16.80;69.97
70154;DHT22;57519;51.494;-2.626;2022-08-01T02:23:11;16.80;70.70
70154;DHT22;57519;51.494;-2.626;2022-08-01T02:25:46;16.76;72.51
70154;DHT22;57519;51.494;-2.626;2022-08-01T02:28:25;16.69;68.99
70154;DHT22;57519;51.494;-2.626;2022-08-01T02:31:08;16.71;70.53
70154;DHT22;57519;51.494;-2.626;2022-08-01T02:33:38;16.70;69.34
70154;DHT22;57519;51.494;-2.626;2022-08-01T02:36:05;16.71;69.34
70154;DHT22;57519;51.494;-2.626;2022-08-01T02:38:34;16.79;70.22
70154;DHT22;57519;51.494;-2.626;2022-08-01T02:41:05;16.79;69.50
70154;DHT22;57519;51.494;-2.626;2022-08-01T02:43:34;16.79;71.42
70154;DHT22;57519;51.494;-2.626;2022-08-01T02:46:02;16.76;71.18
70154;DHT22;57519;51.494;-2.626;2022-08-01T02:48:30;16.77;68.85
70154;DHT22;57519;51.494;-2.626;2022-08-01T02:50:58;16.84;68.89
70154;DHT22;57519;51.494;-2.626;2022-08-01T02:53:25;16.83;67.57
70154;DHT22;57519;51.494;-2.626;2022-08-01T02:55:53;16.80;68.44
70154;DHT22;57519;51.494;-2.626;2022-08-01T02:58:20;16.77;67.11
70154;DHT22;57519;51.494;-2.626;2022-08-01T03:00:46;16.71;68.34
70154;DHT22;57519;51.494;-2.626;2022-08-01T03:03:13;16.69;69.31
70154;DHT22;57519;51.494;-2.626;2022-08-01T03:05:39;16.64;69.09
70154;DHT22;57519;51.494;-2.626;2022-08-01T03:08:06;16.49;70.33
70154;DHT22;57519;51.494;-2.626;2022-08-01T03:10:33;16.48;68.05
70154;DHT22;57519;51.494;-2.626;2022-08-01T03:13:00;16.36;70.45
70154;DHT22;57519;51.494;-2.626;2022-08-01T03:15:29;16.38;67.27
70154;DHT22;57519;51.494;-2.626;2022-08-01T03:17:57;16.33;68.95
70154;DHT22;57519;51.494;-2.626;2022-08-01T03:20:25;16.34;66.52
70154;DHT22;57519;51.494;-2.626;2022-08-01T03:22:52;16.34;67.37
70154;DHT22;57519;51.494;-2.626;2022-08-01T03:25:19;16.39;66.72
70154;DHT22;57519;51.494;-2.626;2022-08-01T03:27:50;16.33;65.91
70154;DHT22;57519;51.494;-2.626;2022-08-01T03:30:17;16.34;66.10
70154;DHT22;57519;51.494;-2.626;2022-08-01T03:32:42;16.25;65.98
70154;DHT22;57519;51.494;-2.626;2022-08-01T03:35:08;16.21;65.98
70154;DHT22;57519;51.494;-2.626;2022-08-01T03:37:41;16.22;65.78
70154;DHT22;57519;51.494;-2.626;2022-08-01T03:40:10;16.22;66.60
70154;DHT22;57519;51.494;-2.626;2022-08-01T03:42:44;16.23;65.69
70154;DHT22;57519;51.494;-2.626;2022-08-01T03:45:11;16.22;66.47
70154;DHT22;57519;51.494;-2.626;2022-08-01T03:47:42;16.23;67.08
70154;DHT22;57519;51.494;-2.626;2022-08-01T03:50:10;16.23;68.02
70154;DHT22;57519;51.494;-2.626;2022-08-01T03:52:37;16.28;67.19
70154;DHT22;57519;51.494;-2.626;2022-08-01T03:55:06;16.26;68.80
70154;DHT22;57519;51.494;-2.626;2022-08-01T03:57:32;16.19;67.21
70154;DHT22;57519;51.494;-2.626;2022-08-01T03:59:59;16.28;66.69
70154;DHT22;57519;51.494;-2.626;2022-08-01T04:02:26;16.34;66.26
70154;DHT22;57519;51.494;-2.626;2022-08-01T04:04:53;16.32;66.37
70154;DHT22;57519;51.494;-2.626;2022-08-01T04:07:26;16.30;66.64
70154;DHT22;57519;51.494;-2.626;2022-08-01T04:09:52;16.32;66.56
70154;DHT22;57519;51.494;-2.626;2022-08-01T04:12:18;16.33;66.59
70154;DHT22;57519;51.494;-2.626;2022-08-01T04:14:44;16.41;66.13
70154;DHT22;57519;51.494;-2.626;2022-08-01T04:17:09;16.33;66.53
70154;DHT22;57519;51.494;-2.626;2022-08-01T04:19:35;16.30;65.69
70154;DHT22;57519;51.494;-2.626;2022-08-01T04:22:00;16.34;66.45
70154;DHT22;57519;51.494;-2.626;2022-08-01T04:24:28;16.34;65.79
70154;DHT22;57519;51.494;-2.626;2022-08-01T04:26:56;16.32;66.00
70154;DHT22;57519;51.494;-2.626;2022-08-01T04:29:23;16.38;66.33
70154;DHT22;57519;51.494;-2.626;2022-08-01T04:31:50;16.41;66.18
70154;DHT22;57519;51.494;-2.626;2022-08-01T04:34:20;16.45;66.92
70154;DHT22;57519;51.494;-2.626;2022-08-01T04:36:48;16.48;66.73
70154;DHT22;57519;51.494;-2.626;2022-08-01T04:39:16;16.46;65.99
70154;DHT22;57519;51.494;-2.626;2022-08-01T04:41:43;16.42;65.97
70154;DHT22;57519;51.494;-2.626;2022-08-01T04:44:09;16.42;65.38
70154;DHT22;57519;51.494;-2.626;2022-08-01T04:46:35;16.30;65.88
70154;DHT22;57519;51.494;-2.626;2022-08-01T04:49:04;16.28;66.02
70154;DHT22;57519;51.494;-2.626;2022-08-01T04:51:30;16.30;66.31
70154;DHT22;57519;51.494;-2.626;2022-08-01T04:53:56;16.32;65.52
70154;DHT22;57519;51.494;-2.626;2022-08-01T04:56:23;16.38;65.99
70154;DHT22;57519;51.494;-2.626;2022-08-01T04:58:48;16.33;65.74
70154;DHT22;57519;51.494;-2.626;2022-08-01T05:01:34;16.26;66.44
70154;DHT22;57519;51.494;-2.626;2022-08-01T05:04:00;16.22;67.79
70154;DHT22;57519;51.494;-2.626;2022-08-01T05:06:25;16.08;68.55
70154;DHT22;57519;51.494;-2.626;2022-08-01T05:08:50;16.02;70.07
70154;DHT22;57519;51.494;-2.626;2022-08-01T05:11:16;15.95;70.63
70154;DHT22;57519;51.494;-2.626;2022-08-01T05:13:41;16.02;69.33
70154;DHT22;57519;51.494;-2.626;2022-08-01T05:16:07;16.01;70.28
70154;DHT22;57519;51.494;-2.626;2022-08-01T05:18:32;15.95;70.02
70154;DHT22;57519;51.494;-2.626;2022-08-01T05:20:57;16.02;70.66
70154;DHT22;57519;51.494;-2.626;2022-08-01T05:23:23;16.04;70.94
70154;DHT22;57519;51.494;-2.626;2022-08-01T05:25:48;15.93;70.98
70154;DHT22;57519;51.494;-2.626;2022-08-01T05:28:15;15.84;71.85
70154;DHT22;57519;51.494;-2.626;2022-08-01T05:30:40;15.71;71.69
70154;DHT22;57519;51.494;-2.626;2022-08-01T05:33:06;15.78;71.01
70154;DHT22;57519;51.494;-2.626;2022-08-01T05:35:31;15.84;72.03
70154;DHT22;57519;51.494;-2.626;2022-08-01T05:37:57;15.97;71.67
70154;DHT22;57519;51.494;-2.626;2022-08-01T05:40:22;16.06;72.08
70154;DHT22;57519;51.494;-2.626;2022-08-01T05:42:47;16.08;72.80
70154;DHT22;57519;51.494;-2.626;2022-08-01T05:45:13;16.12;72.07
70154;DHT22;57519;51.494;-2.626;2022-08-01T05:47:38;16.12;70.44
70154;DHT22;57519;51.494;-2.626;2022-08-01T05:50:04;16.12;71.64
70154;DHT22;57519;51.494;-2.626;2022-08-01T05:52:29;16.11;71.89
70154;DHT22;57519;51.494;-2.626;2022-08-01T05:54:56;16.15;70.44
70154;DHT22;57519;51.494;-2.626;2022-08-01T05:57:21;16.19;71.86
70154;DHT22;57519;51.494;-2.626;2022-08-01T05:59:46;16.19;71.38
70154;DHT22;57519;51.494;-2.626;2022-08-01T06:02:12;16.19;71.90
70154;DHT22;57519;51.494;-2.626;2022-08-01T06:04:37;16.29;71.17
70154;DHT22;57519;51.494;-2.626;2022-08-01T06:07:03;16.26;71.44
70154;DHT22;57519;51.494;-2.626;2022-08-01T06:09:28;16.36;72.17
70154;DHT22;57519;51.494;-2.626;2022-08-01T06:11:55;16.42;69.88
70154;DHT22;57519;51.494;-2.626;2022-08-01T06:14:21;16.46;70.89
70154;DHT22;57519;51.494;-2.626;2022-08-01T06:16:46;16.49;70.57
70154;DHT22;57519;51.494;-2.626;2022-08-01T06:19:11;16.52;70.50
70154;DHT22;57519;51.494;-2.626;2022-08-01T06:21:37;16.57;69.12
70154;DHT22;57519;51.494;-2.626;2022-08-01T06:24:03;16.64;68.01
70154;DHT22;57519;51.494;-2.626;2022-08-01T06:26:28;16.77;68.84
70154;DHT22;57519;51.494;-2.626;2022-08-01T06:28:53;16.85;67.78
70154;DHT22;57519;51.494;-2.626;2022-08-01T06:31:19;16.95;69.64
70154;DHT22;57519;51.494;-2.626;2022-08-01T06:33:44;17.00;66.59
70154;DHT22;57519;51.494;-2.626;2022-08-01T06:38:35;17.06;66.60
70154;DHT22;57519;51.494;-2.626;2022-08-01T06:41:00;17.01;67.59
70154;DHT22;57519;51.494;-2.626;2022-08-01T06:43:26;16.94;65.64
70154;DHT22;57519;51.494;-2.626;2022-08-01T06:45:51;17.10;65.91
70154;DHT22;57519;51.494;-2.626;2022-08-01T06:50:42;17.39;64.62
70154;DHT22;57519;51.494;-2.626;2022-08-01T06:53:07;17.55;64.99
70154;DHT22;57519;51.494;-2.626;2022-08-01T06:55:33;17.56;61.94
70154;DHT22;57519;51.494;-2.626;2022-08-01T06:57:59;17.76;61.85
70154;DHT22;57519;51.494;-2.626;2022-08-01T07:00:25;17.91;62.10
70154;DHT22;57519;51.494;-2.626;2022-08-01T07:02:55;17.98;61.56
70154;DHT22;57519;51.494;-2.626;2022-08-01T07:05:21;18.01;61.56
70154;DHT22;57519;51.494;-2.626;2022-08-01T07:07:47;17.75;61.23
70154;DHT22;57519;51.494;-2.626;2022-08-01T07:10:12;17.67;61.29
70154;DHT22;57519;51.494;-2.626;2022-08-01T07:12:38;17.72;61.68
70154;DHT22;57519;51.494;-2.626;2022-08-01T07:15:05;17.62;61.76
70154;DHT22;57519;51.494;-2.626;2022-08-01T07:17:30;17.57;61.92
70154;DHT22;57519;51.494;-2.626;2022-08-01T07:19:56;17.66;62.58
70154;DHT22;57519;51.494;-2.626;2022-08-01T07:22:21;17.66;62.41
70154;DHT22;57519;51.494;-2.626;2022-08-01T07:24:47;17.57;61.77
70154;DHT22;57519;51.494;-2.626;2022-08-01T07:27:12;17.65;62.25
70154;DHT22;57519;51.494;-2.626;2022-08-01T07:29:37;17.55;62.13
70154;DHT22;57519;51.494;-2.626;2022-08-01T07:32:03;17.56;63.27
70154;DHT22;57519;51.494;-2.626;2022-08-01T07:34:29;17.52;62.33
70154;DHT22;57519;51.494;-2.626;2022-08-01T07:36:54;17.59;62.25
70154;DHT22;57519;51.494;-2.626;2022-08-01T07:39:20;17.52;61.86
70154;DHT22;57519;51.494;-2.626;2022-08-01T07:41:45;17.55;62.49
70154;DHT22;57519;51.494;-2.626;2022-08-01T07:44:10;17.67;63.02
70154;DHT22;57519;51.494;-2.626;2022-08-01T07:46:36;17.77;63.06
70154;DHT22;57519;51.494;-2.626;2022-08-01T07:49:01;17.82;61.68
70154;DHT22;57519;51.494;-2.626;2022-08-01T07:51:27;17.84;60.96
70154;DHT22;57519;51.494;-2.626;2022-08-01T07:53:52;18.08;61.81
70154;DHT22;57519;51.494;-2.626;2022-08-01T07:56:18;18.40;60.85
70154;DHT22;57519;51.494;-2.626;2022-08-01T07:58:43;18.61;59.98
70154;DHT22;57519;51.494;-2.626;2022-08-01T08:01:09;18.76;58.42
70154;DHT22;57519;51.494;-2.626;2022-08-01T08:03:34;18.96;57.90
70154;DHT22;57519;51.494;-2.626;2022-08-01T08:05:59;18.65;58.03
70154;DHT22;57519;51.494;-2.626;2022-08-01T08:08:25;18.72;58.65
70154;DHT22;57519;51.494;-2.626;2022-08-01T08:10:51;18.63;58.60
70154;DHT22;57519;51.494;-2.626;2022-08-01T08:13:16;18.72;58.85
70154;DHT22;57519;51.494;-2.626;2022-08-01T08:15:42;18.69;58.71
70154;DHT22;57519;51.494;-2.626;2022-08-01T08:18:07;18.59;58.25
70154;DHT22;57519;51.494;-2.626;2022-08-01T08:20:33;18.83;58.20
70154;DHT22;57519;51.494;-2.626;2022-08-01T08:22:59;18.69;57.35
70154;DHT22;57519;51.494;-2.626;2022-08-01T08:25:25;18.73;57.16
70154;DHT22;57519;51.494;-2.626;2022-08-01T08:27:51;18.96;57.10
70154;DHT22;57519;51.494;-2.626;2022-08-01T08:30:17;19.14;57.86
70154;DHT22;57519;51.494;-2.626;2022-08-01T08:32:43;19.38;56.70
70154;DHT22;57519;51.494;-2.626;2022-08-01T08:35:09;19.24;56.67
70154;DHT22;57519;51.494;-2.626;2022-08-01T08:37:35;19.34;56.68
70154;DHT22;57519;51.494;-2.626;2022-08-01T08:40:02;19.18;57.71
70154;DHT22;57519;51.494;-2.626;2022-08-01T08:42:28;19.21;58.49
70154;DHT22;57519;51.494;-2.626;2022-08-01T08:44:54;19.17;57.72
70154;DHT22;57519;51.494;-2.626;2022-08-01T08:47:21;19.44;56.94
70154;DHT22;57519;51.494;-2.626;2022-08-01T08:49:49;19.81;57.04
70154;DHT22;57519;51.494;-2.626;2022-08-01T08:52:15;20.17;56.13
70154;DHT22;57519;51.494;-2.626;2022-08-01T08:54:41;19.99;55.78
70154;DHT22;57519;51.494;-2.626;2022-08-01T08:57:07;20.19;56.01
70154;DHT22;57519;51.494;-2.626;2022-08-01T08:59:33;20.02;55.61
70154;DHT22;57519;51.494;-2.626;2022-08-01T09:01:59;19.97;55.53
70154;DHT22;57519;51.494;-2.626;2022-08-01T09:04:25;20.40;55.65
70154;DHT22;57519;51.494;-2.626;2022-08-01T09:06:51;20.47;55.29
70154;DHT22;57519;51.494;-2.626;2022-08-01T09:09:17;20.36;55.35
70154;DHT22;57519;51.494;-2.626;2022-08-01T09:11:43;20.24;55.28
70154;DHT22;57519;51.494;-2.626;2022-08-01T09:14:14;20.19;56.08
70154;DHT22;57519;51.494;-2.626;2022-08-01T09:16:42;19.86;57.38
70154;DHT22;57519;51.494;-2.626;2022-08-01T09:19:13;20.12;58.01
70154;DHT22;57519;51.494;-2.626;2022-08-01T09:21:41;20.36;55.82
70154;DHT22;57519;51.494;-2.626;2022-08-01T09:24:19;20.37;54.85
70154;DHT22;57519;51.494;-2.626;2022-08-01T09:26:45;20.48;54.36
70154;DHT22;57519;51.494;-2.626;2022-08-01T09:29:18;20.52;54.58
70154;DHT22;57519;51.494;-2.626;2022-08-01T09:31:44;21.06;54.53
70154;DHT22;57519;51.494;-2.626;2022-08-01T09:34:10;20.91;53.84
70154;DHT22;57519;51.494;-2.626;2022-08-01T09:36:52;20.92;53.99
70154;DHT22;57519;51.494;-2.626;2022-08-01T09:39:20;20.88;54.43
70154;DHT22;57519;51.494;-2.626;2022-08-01T09:41:46;20.98;54.13
70154;DHT22;57519;51.494;-2.626;2022-08-01T09:44:12;20.94;54.07
70154;DHT22;57519;51.494;-2.626;2022-08-01T09:46:54;20.65;53.57
70154;DHT22;57519;51.494;-2.626;2022-08-01T09:49:29;20.72;54.29
70154;DHT22;57519;51.494;-2.626;2022-08-01T09:51:54;20.84;54.04
70154;DHT22;57519;51.494;-2.626;2022-08-01T09:54:31;21.05;53.82
70154;DHT22;57519;51.494;-2.626;2022-08-01T09:57:14;21.42;53.30
70154;DHT22;57519;51.494;-2.626;2022-08-01T09:59:44;21.29;52.67
70154;DHT22;57519;51.494;-2.626;2022-08-01T10:02:25;21.29;52.40
70154;DHT22;57519;51.494;-2.626;2022-08-01T10:04:51;21.30;52.22
70154;DHT22;57519;51.494;-2.626;2022-08-01T10:07:18;21.71;54.20
70154;DHT22;57519;51.494;-2.626;2022-08-01T10:09:45;22.18;51.12
70154;DHT22;57519;51.494;-2.626;2022-08-01T10:12:13;21.83;51.34
70154;DHT22;57519;51.494;-2.626;2022-08-01T10:14:40;21.75;52.41
70154;DHT22;57519;51.494;-2.626;2022-08-01T10:17:07;21.50;52.38
70154;DHT22;57519;51.494;-2.626;2022-08-01T10:19:34;21.51;52.89
70154;DHT22;57519;51.494;-2.626;2022-08-01T10:22:01;21.50;52.07
70154;DHT22;57519;51.494;-2.626;2022-08-01T10:24:29;21.80;52.15
70154;DHT22;57519;51.494;-2.626;2022-08-01T10:26:58;21.67;52.48
70154;DHT22;57519;51.494;-2.626;2022-08-01T10:29:32;21.56;52.24
70154;DHT22;57519;51.494;-2.626;2022-08-01T10:31:59;21.53;52.06
70154;DHT22;57519;51.494;-2.626;2022-08-01T10:34:25;21.53;52.39
70154;DHT22;57519;51.494;-2.626;2022-08-01T10:36:52;21.90;52.73
70154;DHT22;57519;51.494;-2.626;2022-08-01T10:39:17;22.16;52.02
70154;DHT22;57519;51.494;-2.626;2022-08-01T10:41:45;22.08;51.79
70154;DHT22;57519;51.494;-2.626;2022-08-01T10:44:10;22.32;52.62
70154;DHT22;57519;51.494;-2.626;2022-08-01T10:46:42;22.57;52.87
70154;DHT22;57519;51.494;-2.626;2022-08-01T10:49:13;22.56;51.41
70154;DHT22;57519;51.494;-2.626;2022-08-01T10:51:40;22.64;51.17
70154;DHT22;57519;51.494;-2.626;2022-08-01T10:54:08;22.57;51.80
70154;DHT22;57519;51.494;-2.626;2022-08-01T10:56:48;22.43;51.99
70154;DHT22;57519;51.494;-2.626;2022-08-01T10:59:20;22.29;52.59
70154;DHT22;57519;51.494;-2.626;2022-08-01T11:01:58;22.16;52.38
70154;DHT22;57519;51.494;-2.626;2022-08-01T11:04:51;22.53;52.31
70154;DHT22;57519;51.494;-2.626;2022-08-01T11:07:24;22.77;50.29
70154;DHT22;57519;51.494;-2.626;2022-08-01T11:10:14;22.83;49.56
70154;DHT22;57519;51.494;-2.626;2022-08-01T11:12:41;23.03;50.04
70154;DHT22;57519;51.494;-2.626;2022-08-01T11:17:42;23.48;49.71
70154;DHT22;57519;51.494;-2.626;2022-08-01T11:20:18;23.48;46.94
70154;DHT22;57519;51.494;-2.626;2022-08-01T11:30:45;23.45;49.40
70154;DHT22;57519;51.494;-2.626;2022-08-01T11:33:12;23.49;47.77
70154;DHT22;57519;51.494;-2.626;2022-08-01T11:38:36;23.96;48.32
70154;DHT22;57519;51.494;-2.626;2022-08-01T11:52:13;22.91;49.50
70154;DHT22;57519;51.494;-2.626;2022-08-01T11:57:16;23.25;49.97
70154;DHT22;57519;51.494;-2.626;2022-08-01T11:59:52;23.35;49.16
70154;DHT22;57519;51.494;-2.626;2022-08-01T12:02:23;23.58;49.67
70154;DHT22;57519;51.494;-2.626;2022-08-01T12:07:26;23.55;48.12
70154;DHT22;57519;51.494;-2.626;2022-08-01T12:10:03;23.49;49.22
70154;DHT22;57519;51.494;-2.626;2022-08-01T12:12:30;23.70;49.19
70154;DHT22;57519;51.494;-2.626;2022-08-01T12:14:58;23.63;48.21
70154;DHT22;57519;51.494;-2.626;2022-08-01T12:17:38;23.44;49.08
70154;DHT22;57519;51.494;-2.626;2022-08-01T12:20:05;23.48;49.29
70154;DHT22;57519;51.494;-2.626;2022-08-01T12:22:31;23.56;49.38
70154;DHT22;57519;51.494;-2.626;2022-08-01T12:25:07;23.32;49.00
70154;DHT22;57519;51.494;-2.626;2022-08-01T12:27:34;23.15;49.33
70154;DHT22;57519;51.494;-2.626;2022-08-01T12:30:00;23.32;49.33
70154;DHT22;57519;51.494;-2.626;2022-08-01T12:32:27;23.55;48.68
70154;DHT22;57519;51.494;-2.626;2022-08-01T12:34:53;23.61;49.14
70154;DHT22;57519;51.494;-2.626;2022-08-01T12:37:19;23.45;49.57
70154;DHT22;57519;51.494;-2.626;2022-08-01T12:39:46;23.32;50.46
70154;DHT22;57519;51.494;-2.626;2022-08-01T12:42:12;23.29;48.70
70154;DHT22;57519;51.494;-2.626;2022-08-01T12:44:39;23.06;49.77
70154;DHT22;57519;51.494;-2.626;2022-08-01T12:47:08;23.06;50.62
70154;DHT22;57519;51.494;-2.626;2022-08-01T12:49:35;23.14;50.54
70154;DHT22;57519;51.494;-2.626;2022-08-01T12:52:02;23.34;50.18
70154;DHT22;57519;51.494;-2.626;2022-08-01T12:54:28;22.94;49.56
70154;DHT22;57519;51.494;-2.626;2022-08-01T12:56:53;23.25;49.84
70154;DHT22;57519;51.494;-2.626;2022-08-01T12:59:23;23.31;49.66
70154;DHT22;57519;51.494;-2.626;2022-08-01T13:01:51;23.54;49.63
70154;DHT22;57519;51.494;-2.626;2022-08-01T13:04:17;23.24;49.88
70154;DHT22;57519;51.494;-2.626;2022-08-01T13:06:42;23.70;49.85
70154;DHT22;57519;51.494;-2.626;2022-08-01T13:09:08;23.70;49.32
70154;DHT22;57519;51.494;-2.626;2022-08-01T13:11:36;23.65;49.97
70154;DHT22;57519;51.494;-2.626;2022-08-01T13:14:01;23.73;49.08
70154;DHT22;57519;51.494;-2.626;2022-08-01T13:16:27;24.09;48.70
70154;DHT22;57519;51.494;-2.626;2022-08-01T13:18:57;24.54;49.73
70154;DHT22;57519;51.494;-2.626;2022-08-01T13:26:58;24.41;47.89
70154;DHT22;57519;51.494;-2.626;2022-08-01T13:29:33;24.52;47.40
70154;DHT22;57519;51.494;-2.626;2022-08-01T13:32:00;24.18;47.13
70154;DHT22;57519;51.494;-2.626;2022-08-01T13:34:35;23.76;47.16
70154;DHT22;57519;51.494;-2.626;2022-08-01T13:37:01;23.90;47.92
70154;DHT22;57519;51.494;-2.626;2022-08-01T13:39:29;24.20;48.39
70154;DHT22;57519;51.494;-2.626;2022-08-01T13:42:11;24.67;47.46
70154;DHT22;57519;51.494;-2.626;2022-08-01T13:44:37;24.21;47.12
70154;DHT22;57519;51.494;-2.626;2022-08-01T13:47:03;24.09;48.59
70154;DHT22;57519;51.494;-2.626;2022-08-01T13:49:28;24.28;47.97
70154;DHT22;57519;51.494;-2.626;2022-08-01T13:51:54;24.68;47.53
70154;DHT22;57519;51.494;-2.626;2022-08-01T13:54:19;24.54;46.40
70154;DHT22;57519;51.494;-2.626;2022-08-01T13:56:45;24.69;46.37
70154;DHT22;57519;51.494;-2.626;2022-08-01T13:59:11;24.88;46.72
70154;DHT22;57519;51.494;-2.626;2022-08-01T14:01:37;24.92;46.26
70154;DHT22;57519;51.494;-2.626;2022-08-01T14:04:02;24.62;47.01
70154;DHT22;57519;51.494;-2.626;2022-08-01T14:06:28;24.92;47.39
70154;DHT22;57519;51.494;-2.626;2022-08-01T14:08:53;25.22;45.78
70154;DHT22;57519;51.494;-2.626;2022-08-01T14:11:19;25.24;44.01
70154;DHT22;57519;51.494;-2.626;2022-08-01T14:13:44;24.95;44.48
70154;DHT22;57519;51.494;-2.626;2022-08-01T14:16:10;25.12;44.84
70154;DHT22;57519;51.494;-2.626;2022-08-01T14:18:35;24.93;44.56
70154;DHT22;57519;51.494;-2.626;2022-08-01T14:21:01;25.10;46.69
70154;DHT22;57519;51.494;-2.626;2022-08-01T14:23:26;24.97;45.65
70154;DHT22;57519;51.494;-2.626;2022-08-01T14:25:52;25.15;44.83
70154;DHT22;57519;51.494;-2.626;2022-08-01T14:28:18;25.26;45.43
70154;DHT22;57519;51.494;-2.626;2022-08-01T14:30:44;25.26;43.83
70154;DHT22;57519;51.494;-2.626;2022-08-01T14:33:10;25.02;44.57
70154;DHT22;57519;51.494;-2.626;2022-08-01T14:35:36;24.79;45.18
70154;DHT22;57519;51.494;-2.626;2022-08-01T14:38:01;25.07;46.71
70154;DHT22;57519;51.494;-2.626;2022-08-01T14:40:27;25.28;45.59
70154;DHT22;57519;51.494;-2.626;2022-08-01T14:42:52;25.37;46.28
70154;DHT22;57519;51.494;-2.626;2022-08-01T14:45:18;25.09;47.55
70154;DHT22;57519;51.494;-2.626;2022-08-01T14:47:43;25.12;46.79
70154;DHT22;57519;51.494;-2.626;2022-08-01T14:50:10;25.54;46.67
70154;DHT22;57519;51.494;-2.626;2022-08-01T14:52:37;25.61;45.38
70154;DHT22;57519;51.494;-2.626;2022-08-01T14:55:04;25.60;45.07
70154;DHT22;57519;51.494;-2.626;2022-08-01T14:57:30;25.33;45.98
70154;DHT22;57519;51.494;-2.626;2022-08-01T14:59:56;25.40;46.47
70154;DHT22;57519;51.494;-2.626;2022-08-01T15:02:22;25.28;46.84
70154;DHT22;57519;51.494;-2.626;2022-08-01T15:04:48;25.53;46.63
70154;DHT22;57519;51.494;-2.626;2022-08-01T15:07:14;25.82;46.36
70154;DHT22;57519;51.494;-2.626;2022-08-01T15:09:39;25.33;46.60
70154;DHT22;57519;51.494;-2.626;2022-08-01T15:12:05;25.34;47.84
70154;DHT22;57519;51.494;-2.626;2022-08-01T15:14:31;25.37;47.34
70154;DHT22;57519;51.494;-2.626;2022-08-01T15:17:15;25.63;47.86
70154;DHT22;57519;51.494;-2.626;2022-08-01T15:19:40;25.84;47.18
70154;DHT22;57519;51.494;-2.626;2022-08-01T15:22:06;25.93;46.02
70154;DHT22;57519;51.494;-2.626;2022-08-01T15:24:32;25.92;46.59
70154;DHT22;57519;51.494;-2.626;2022-08-01T15:26:57;26.09;46.09
70154;DHT22;57519;51.494;-2.626;2022-08-01T15:29:23;26.19;46.46
70154;DHT22;57519;51.494;-2.626;2022-08-01T15:31:48;26.28;45.75
70154;DHT22;57519;51.494;-2.626;2022-08-01T15:34:14;25.99;47.77
70154;DHT22;57519;51.494;-2.626;2022-08-01T15:36:39;25.85;47.08
70154;DHT22;57519;51.494;-2.626;2022-08-01T15:39:05;25.89;47.91
70154;DHT22;57519;51.494;-2.626;2022-08-01T15:41:30;26.05;47.10
70154;DHT22;57519;51.494;-2.626;2022-08-01T15:43:55;26.25;47.08
70154;DHT22;57519;51.494;-2.626;2022-08-01T15:46:21;26.03;47.89
70154;DHT22;57519;51.494;-2.626;2022-08-01T15:48:46;26.22;47.81
70154;DHT22;57519;51.494;-2.626;2022-08-01T15:51:12;26.37;46.80
70154;DHT22;57519;51.494;-2.626;2022-08-01T15:53:37;26.36;47.17
70154;DHT22;57519;51.494;-2.626;2022-08-01T15:56:03;25.89;47.75
70154;DHT22;57519;51.494;-2.626;2022-08-01T15:58:28;26.18;48.27
70154;DHT22;57519;51.494;-2.626;2022-08-01T16:00:54;25.84;47.69
70154;DHT22;57519;51.494;-2.626;2022-08-01T16:03:19;25.98;47.53
70154;DHT22;57519;51.494;-2.626;2022-08-01T16:05:46;25.92;47.74
70154;DHT22;57519;51.494;-2.626;2022-08-01T16:08:12;25.99;46.90
70154;DHT22;57519;51.494;-2.626;2022-08-01T16:10:38;25.99;47.78
70154;DHT22;57519;51.494;-2.626;2022-08-01T16:13:03;26.01;47.65
70154;DHT22;57519;51.494;-2.626;2022-08-01T16:15:29;25.96;48.26
70154;DHT22;57519;51.494;-2.626;2022-08-01T16:17:54;25.71;49.24
70154;DHT22;57519;51.494;-2.626;2022-08-01T16:20:19;25.80;48.64